createdAt,value
2022-10-12T01:32:54.286Z,2.33
2022-10-12T01:35:30.656Z,1.37
2022-10-12T01:38:10.061Z,2.60
2022-10-12T01:40:43.984Z,3.20
2022-10-12T01:43:13.435Z,2.97
2022-10-12T01:45:41.975Z,2.37
2022-10-12T01:48:10.874Z,4.07
2022-10-12T01:50:52.540Z,2.37
2022-10-12T01:53:30.644Z,2.87
2022-10-12T01:56:07.922Z,2.53
2022-10-12T01:58:56.360Z,2.90
2022-10-12T02:01:34.194Z,2.90
2022-10-12T02:04:13.052Z,2.53
2022-10-12T02:06:48.675Z,2.87
2022-10-12T02:09:27.655Z,2.00
2022-10-12T02:12:01.860Z,1.97
2022-10-12T02:14:39.018Z,2.47
2022-10-12T02:17:12.069Z,2.67
2022-10-12T02:19:46.424Z,3.33
2022-10-12T02:22:17.722Z,2.03
2022-10-12T02:24:49.619Z,2.40
2022-10-12T02:27:20.279Z,2.73
2022-10-12T02:29:50.228Z,2.20
2022-10-12T02:32:23.476Z,1.70
2022-10-12T02:34:57.231Z,1.70
2022-10-12T02:37:37.772Z,2.13
2022-10-12T02:40:16.198Z,2.57
2022-10-12T02:43:09.255Z,2.30
2022-10-12T02:45:39.818Z,1.47
2022-10-12T02:48:11.119Z,1.40
2022-10-12T02:50:40.319Z,1.10
2022-10-12T02:53:12.662Z,1.03
2022-10-12T02:55:49.086Z,1.00
2022-10-12T02:58:19.120Z,1.53
2022-10-12T03:00:47.932Z,0.90
2022-10-12T03:03:16.316Z,1.30
2022-10-12T03:05:44.577Z,1.50
2022-10-12T03:08:14.626Z,1.93
2022-10-12T03:10:43.595Z,1.00
2022-10-12T03:13:11.805Z,1.60
2022-10-12T03:15:40.058Z,1.43
2022-10-12T03:18:08.477Z,2.23
2022-10-12T03:20:36.812Z,2.23
2022-10-12T03:23:05.420Z,2.70
2022-10-12T03:25:35.078Z,3.50
2022-10-12T03:28:03.366Z,2.70
2022-10-12T03:30:32.102Z,2.50
2022-10-12T03:33:01.113Z,4.87
2022-10-12T03:35:29.457Z,3.03
2022-10-12T03:37:57.725Z,5.00
2022-10-12T03:40:26.215Z,3.53
2022-10-12T03:42:55.830Z,2.37
2022-10-12T03:45:24.057Z,3.40
2022-10-12T03:47:52.342Z,3.43
2022-10-12T03:50:21.220Z,2.93
2022-10-12T03:52:49.821Z,2.03
2022-10-12T03:55:18.639Z,1.50
2022-10-12T03:57:47.645Z,1.53
2022-10-12T04:00:19.149Z,1.27
2022-10-12T04:02:47.951Z,1.63
2022-10-12T04:05:17.370Z,1.63
2022-10-12T04:07:46.316Z,2.10
2022-10-12T04:10:15.005Z,2.57
2022-10-12T04:12:43.940Z,3.33
2022-10-12T04:15:13.304Z,3.37
2022-10-12T04:17:43.796Z,7.23
2022-10-12T04:20:14.210Z,2.70
2022-10-12T04:22:42.749Z,3.20
2022-10-12T04:25:13.528Z,4.47
2022-10-12T04:27:42.204Z,2.07
2022-10-12T04:30:13.457Z,3.20
2022-10-12T04:32:44.027Z,2.07
2022-10-12T04:35:12.705Z,3.57
2022-10-12T04:37:42.108Z,2.17
2022-10-12T04:40:11.694Z,3.90
2022-10-12T04:42:40.446Z,3.00
2022-10-12T04:45:10.732Z,2.67
2022-10-12T04:47:39.970Z,2.53
2022-10-12T04:50:11.315Z,3.37
2022-10-12T04:52:39.785Z,3.40
2022-10-12T04:55:10.740Z,3.23
2022-10-12T04:57:40.208Z,2.60
2022-10-12T05:00:11.736Z,4.13
2022-10-12T05:02:40.413Z,2.50
2022-10-12T05:05:11.679Z,3.07
2022-10-12T05:07:40.463Z,3.07
2022-10-12T05:10:10.452Z,1.87
2022-10-12T05:12:39.813Z,1.70
2022-10-12T05:15:10.479Z,1.83
2022-10-12T05:17:39.914Z,2.70
2022-10-12T05:20:12.452Z,2.00
2022-10-12T05:22:41.601Z,2.80
2022-10-12T05:25:12.186Z,2.23
2022-10-12T05:27:41.515Z,3.47
2022-10-12T05:30:12.113Z,2.23
2022-10-12T05:32:40.747Z,3.73
2022-10-12T05:35:12.269Z,4.80
2022-10-12T05:37:41.449Z,6.87
2022-10-12T05:40:11.648Z,7.93
2022-10-12T05:42:40.660Z,4.97
2022-10-12T05:45:10.371Z,6.13
2022-10-12T05:47:39.069Z,5.20
2022-10-12T05:50:11.131Z,3.93
2022-10-12T05:52:40.449Z,5.73
2022-10-12T05:55:11.097Z,6.40
2022-10-12T05:57:39.522Z,7.53
2022-10-12T06:00:10.925Z,6.47
2022-10-12T06:02:40.080Z,6.63
2022-10-12T06:05:10.834Z,5.43
2022-10-12T15:54:58.297Z,3.33
